Marchicora — V2OQ7 — position and weather

sailwx.info

Track history (hours):
 
Tides and Currents Weather Stations Pressure Air Temp Water Temp Dewpoint Dewpoint Depression Visibility Wind Speed Wind Dir Waves Ship Positions

Marchicora

Last reported at 2016-Nov-21 08:33 UTC. Time now 2016-Dec-03 19:46 UTC.
Position N 55°47' E 015°55'.
Warning: this ship's position is 12 days out of date.

Length 153 m; draft 9.8 m.

Type: Cargo ship. MMSI: 304653000.

Date/timePositionNaut miles runAvg speedWind from/ knotsBaromVisibWave heightAir tempDewpointWater temp
2016-Nov-21 08:33N 55°47' E 015°55'1212.4
2016-Nov-21 07:33N 55°41' E 015°36'2512.4
2016-Nov-21 05:33N 55°30' E 014°58'1312.7
2016-Nov-21 04:33N 55°22' E 014°39'2512.7
2016-Nov-21 02:33N 55°03' E 014°10'2512.4
2016-Nov-21 00:33N 54°54' E 013°30'3612.1
2016-Nov-20 21:33N 54°40' E 012°32'38 9.6
2016-Nov-20 17:34N 54°29' E 011°28'1010.0
2016-Nov-20 16:33N 54°34' E 011°14'17 8.7
2016-Nov-20 14:34N 54°46' E 010°51'9 9.0
2016-Nov-20 13:33N 54°55' E 010°54'10 9.7
2016-Nov-20 12:34N 55°03' E 011°02'53 9.9
2016-Nov-20 07:09N 55°57' E 010°59'711.5
2016-Nov-20 06:33N 56°03' E 011°05'7110.1
2016-Nov-19 23:33N 57°12' E 011°32'1211.7
2016-Nov-19 22:34N 57°23' E 011°27'2512.3
2016-Nov-19 20:33N 57°42' E 010°56'1212.2
2016-Nov-19 19:32N 57°48' E 010°36'15212.6
2016-Nov-19 07:25N 56°11' E 007°01'14012.8
2016-Nov-18 20:30N 54°12' E 004°53'17511.7
2016-Nov-18 05:34N 51°40' E 002°27'1414.2
2016-Nov-18 04:34N 51°28' E 002°15'4514.8
2016-Nov-18 01:33N 50°55' E 001°28'5613.5
2016-Nov-17 21:23N 50°23' E 000°15'2413.1
2016-Nov-17 19:33N 50°16' W 000°22'1311.7
2016-Nov-17 18:28N 50°13' W 000°41'11411.5
2016-Nov-17 08:33N 49°36' W 003°28'8514.2
2016-Nov-17 02:33N 48°54' W 005°22'9210.1
2016-Nov-16 17:25N 47°34' W 006°32'49112.0
2016-Nov-15 00:33N 39°45' W 009°51'1212.3
2016-Nov-14 23:37N 39°34' W 009°51'4711.7
2016-Nov-14 19:33N 38°46' W 009°52'2311.7
2016-Nov-14 17:33N 38°23' W 009°47'1211.9
2016-Nov-14 16:33N 38°12' W 009°43'1211.9
2016-Nov-14 15:33N 38°00' W 009°39'4812.0
2016-Nov-14 11:30N 37°13' W 009°26'19911.7
2016-Nov-13 18:32N 35°58' W 005°36'1010.3
2016-Nov-13 17:33N 36°02' W 005°25'8 3.3
2016-Nov-13 15:05N 36°10' W 005°24'0 0.1
2016-Nov-13 13:32N 36°10' W 005°24'0 0.0
2016-Nov-13 03:32N 36°10' W 005°24'123 9.4
2016-Nov-12 14:31N 36°21' W 002°52'1212.0
2016-Nov-12 13:32N 36°23' W 002°37'1211.6
2016-Nov-12 12:31N 36°25' W 002°23'1211.6
2016-Nov-12 11:30N 36°27' W 002°09'  
Track history (hours):
 
Tides and Currents Weather Stations Pressure Air Temp Water Temp Dewpoint Dewpoint Depression Visibility Wind Speed Wind Dir Waves Ship Positions

Marchicora

Last reported at 2016-Nov-21 08:33 UTC. Time now 2016-Dec-03 19:46 UTC.
Position N 55°47' E 015°55'.
Warning: this ship's position is 12 days out of date.

Length 153 m; draft 9.8 m.

Type: Cargo ship. MMSI: 304653000.

Date/timePositionNaut miles runAvg speedWind from/ knotsBaromVisibWave heightAir tempDewpointWater temp
2016-Nov-21 08:33N 55°47' E 015°55'1212.4
2016-Nov-21 07:33N 55°41' E 015°36'2512.4
2016-Nov-21 05:33N 55°30' E 014°58'1312.7
2016-Nov-21 04:33N 55°22' E 014°39'2512.7
2016-Nov-21 02:33N 55°03' E 014°10'2512.4
2016-Nov-21 00:33N 54°54' E 013°30'3612.1
2016-Nov-20 21:33N 54°40' E 012°32'38 9.6
2016-Nov-20 17:34N 54°29' E 011°28'1010.0
2016-Nov-20 16:33N 54°34' E 011°14'17 8.7
2016-Nov-20 14:34N 54°46' E 010°51'9 9.0
2016-Nov-20 13:33N 54°55' E 010°54'10 9.7
2016-Nov-20 12:34N 55°03' E 011°02'53 9.9
2016-Nov-20 07:09N 55°57' E 010°59'711.5
2016-Nov-20 06:33N 56°03' E 011°05'7110.1
2016-Nov-19 23:33N 57°12' E 011°32'1211.7
2016-Nov-19 22:34N 57°23' E 011°27'2512.3
2016-Nov-19 20:33N 57°42' E 010°56'1212.2
2016-Nov-19 19:32N 57°48' E 010°36'15212.6
2016-Nov-19 07:25N 56°11' E 007°01'14012.8
2016-Nov-18 20:30N 54°12' E 004°53'17511.7
2016-Nov-18 05:34N 51°40' E 002°27'1414.2
2016-Nov-18 04:34N 51°28' E 002°15'4514.8
2016-Nov-18 01:33N 50°55' E 001°28'5613.5
2016-Nov-17 21:23N 50°23' E 000°15'2413.1
2016-Nov-17 19:33N 50°16' W 000°22'1311.7
2016-Nov-17 18:28N 50°13' W 000°41'11411.5
2016-Nov-17 08:33N 49°36' W 003°28'8514.2
2016-Nov-17 02:33N 48°54' W 005°22'9210.1
2016-Nov-16 17:25N 47°34' W 006°32'49112.0
2016-Nov-15 00:33N 39°45' W 009°51'1212.3
2016-Nov-14 23:37N 39°34' W 009°51'4711.7
2016-Nov-14 19:33N 38°46' W 009°52'2311.7
2016-Nov-14 17:33N 38°23' W 009°47'1211.9
2016-Nov-14 16:33N 38°12' W 009°43'1211.9
2016-Nov-14 15:33N 38°00' W 009°39'4812.0
2016-Nov-14 11:30N 37°13' W 009°26'19911.7
2016-Nov-13 18:32N 35°58' W 005°36'1010.3
2016-Nov-13 17:33N 36°02' W 005°25'8 3.3
2016-Nov-13 15:05N 36°10' W 005°24'0 0.1
2016-Nov-13 13:32N 36°10' W 005°24'0 0.0
2016-Nov-13 03:32N 36°10' W 005°24'123 9.4
2016-Nov-12 14:31N 36°21' W 002°52'1212.0
2016-Nov-12 13:32N 36°23' W 002°37'1211.6
2016-Nov-12 12:31N 36°25' W 002°23'1211.6
2016-Nov-12 11:30N 36°27' W 002°09'  

Dump ship's entire track history